Time;durP1;ratioP1;P1;durP2;ratioP2;P2;SDS_P1;SDS_P2;PMS_P1;PMS_P2;Temp;Humidity;BMP_temperature;BMP_pressure;BME280_temperature;BME280_humidity;BME280_pressure;Samples;Min_cycle;Max_cycle;Signal;HPM_P1;HPM_P2
2022/09/26 00:00:35;;;;;;;2.90;0.47;;;;;;;12.77;59.53;99230.03;4984260;28;20029;-43
2022/09/26 00:03:02;;;;;;;1.20;0.50;;;;;;;12.74;59.27;99219.75;4988229;28;20059;-45
2022/09/26 00:05:31;;;;;;;1.77;0.60;;;;;;;12.72;60.36;99216.31;4990454;28;20046;-44
2022/09/26 00:07:58;;;;;;;2.25;0.68;;;;;;;12.66;60.32;99206.09;4986822;28;20222;-42
2022/09/26 00:10:25;;;;;;;1.73;0.90;;;;;;;12.64;61.01;99206.13;4986955;28;20049;-45
2022/09/26 00:12:52;;;;;;;1.92;0.85;;;;;;;12.63;60.13;99185.38;4986770;28;20045;-43
2022/09/26 00:15:18;;;;;;;3.92;0.93;;;;;;;12.62;60.31;99179.31;4987597;28;20053;-44
2022/09/26 00:17:46;;;;;;;2.20;0.55;;;;;;;12.60;60.85;99158.56;4967732;28;20094;-41
2022/09/26 00:20:14;;;;;;;4.25;0.75;;;;;;;12.56;61.15;99159.56;4980414;28;20043;-42
2022/09/26 00:22:42;;;;;;;1.50;0.63;;;;;;;12.56;61.23;99159.56;4987910;28;20116;-42
2022/09/26 00:25:11;;;;;;;2.20;0.60;;;;;;;12.55;61.30;99152.66;4985995;28;20053;-44
2022/09/26 00:27:39;;;;;;;3.72;1.95;;;;;;;12.56;60.93;99141.38;4985293;28;20049;-45
2022/09/26 00:30:08;;;;;;;3.00;0.50;;;;;;;12.58;61.28;99150.00;4988089;28;20077;-43
2022/09/26 00:32:37;;;;;;;3.13;0.80;;;;;;;12.59;61.40;99135.25;4987623;28;20058;-42
2022/09/26 00:35:06;;;;;;;4.50;0.90;;;;;;;12.58;61.86;99134.41;4986714;28;20489;-42
2022/09/26 00:37:34;;;;;;;0.90;0.43;;;;;;;12.56;61.17;99133.56;4987572;28;20142;-43
2022/09/26 00:40:02;;;;;;;1.73;0.63;;;;;;;12.56;61.31;99125.78;4985042;28;20074;-43
2022/09/26 00:42:29;;;;;;;2.60;0.65;;;;;;;12.57;62.50;99113.66;4985185;28;20137;-43
2022/09/26 00:44:55;;;;;;;2.45;0.60;;;;;;;12.57;62.11;99111.91;4983566;28;20413;-43
2022/09/26 00:55:37;;;;;;;1.05;0.55;;;;;;;12.52;62.66;99079.13;5037923;27;20402;-40
2022/09/26 00:58:11;;;;;;;1.90;0.50;;;;;;;12.52;62.88;99086.94;5019399;28;20529;-42
2022/09/26 01:00:39;;;;;;;2.20;0.68;;;;;;;12.54;63.23;99082.56;5020052;28;20141;-41
2022/09/26 01:03:08;;;;;;;2.30;0.60;;;;;;;12.59;61.96;99085.88;5018991;28;20045;-43
2022/09/26 01:05:36;;;;;;;1.35;0.43;;;;;;;12.63;62.91;99073.69;5020429;28;20810;-41
2022/09/26 01:08:04;;;;;;;2.28;0.63;;;;;;;12.64;62.83;99085.78;5021229;28;20045;-43
2022/09/26 01:10:34;;;;;;;1.65;0.60;;;;;;;12.66;63.14;99086.59;5020629;28;20141;-41
2022/09/26 01:13:02;;;;;;;1.75;0.52;;;;;;;12.66;63.06;99091.78;5016156;28;20050;-41
2022/09/26 01:15:28;;;;;;;1.30;0.68;;;;;;;12.69;63.06;99083.88;5018290;28;20073;-41
2022/09/26 01:17:56;;;;;;;3.70;0.98;;;;;;;12.71;63.27;99079.53;5019284;28;20503;-41
2022/09/26 01:26:33;;;;;;;3.35;2.38;;;;;;;12.72;63.68;99052.63;5035289;28;20401;-43
2022/09/26 01:29:28;;;;;;;2.35;2.13;;;;;;;12.77;62.46;99037.75;5010429;28;20144;-42
2022/09/26 01:34:43;;;;;;;2.13;0.85;;;;;;;12.84;62.82;99012.47;5035949;27;20403;-41
2022/09/26 01:37:28;;;;;;;2.22;0.98;;;;;;;12.83;62.55;99011.63;4995357;28;20157;-41
2022/09/26 01:40:16;;;;;;;2.28;0.60;;;;;;;12.86;63.16;99015.88;5010229;28;20046;-41
2022/09/26 01:48:31;;;;;;;2.03;0.93;;;;;;;12.89;62.77;98986.34;5041234;28;20399;-40
2022/09/26 01:51:07;;;;;;;1.33;0.45;;;;;;;12.85;64.29;98978.66;5032275;28;20070;-41
2022/09/26 01:53:46;;;;;;;1.63;0.55;;;;;;;12.81;64.67;98961.44;5004625;28;20052;-41
2022/09/26 01:56:20;;;;;;;1.98;1.05;;;;;;;12.80;63.91;98953.69;5016927;28;20509;-41
2022/09/26 01:58:52;;;;;;;1.17;0.52;;;;;;;12.78;64.65;98945.94;5024436;28;20046;-41
2022/09/26 02:01:23;;;;;;;2.80;0.50;;;;;;;12.76;64.44;98945.13;5022344;28;20100;-44
2022/09/26 02:03:56;;;;;;;1.02;0.40;;;;;;;12.74;65.02;98936.53;5018608;28;20136;-41
2022/09/26 02:06:30;;;;;;;0.93;0.60;;;;;;;12.72;65.26;98899.34;5024671;28;20082;-44
2022/09/26 02:09:06;;;;;;;1.33;0.40;;;;;;;12.68;65.02;98913.34;5001968;28;20157;-41
2022/09/26 02:11:34;;;;;;;;;;;;;;;12.48;65.47;98875.81;5021684;28;20152;-41
2022/09/26 02:14:06;;;;;;;1.88;0.57;;;;;;;12.59;65.56;98898.84;5018426;28;20029;-40
2022/09/26 02:16:51;;;;;;;1.25;0.60;;;;;;;12.55;66.16;98900.72;5019569;28;20107;-43
2022/09/26 02:19:30;;;;;;;2.17;0.82;;;;;;;12.60;66.83;98896.22;5020335;28;20735;-41
2022/09/26 02:21:59;;;;;;;2.50;0.75;;;;;;;12.63;65.52;98884.88;5022903;28;20142;-41
2022/09/26 02:24:27;;;;;;;2.70;0.80;;;;;;;12.65;67.19;98888.31;5021215;28;20073;-41
2022/09/26 02:26:54;;;;;;;1.92;1.23;;;;;;;12.63;67.55;98879.69;5019152;28;20067;-41
2022/09/26 02:29:21;;;;;;;2.17;0.57;;;;;;;12.62;66.96;98871.94;5018818;28;20064;-43
2022/09/26 02:31:54;;;;;;;3.58;1.00;;;;;;;12.66;66.63;98853.63;5015169;28;20064;-41
2022/09/26 02:34:23;;;;;;;1.50;0.95;;;;;;;12.67;67.05;98842.31;5017976;28;20603;-41
2022/09/26 02:36:50;;;;;;;2.67;0.45;;;;;;;12.67;66.73;98833.72;5019903;28;20056;-41
2022/09/26 02:39:17;;;;;;;1.58;0.63;;;;;;;12.69;66.66;98831.91;5020085;28;20087;-41
2022/09/26 02:41:56;;;;;;;2.10;0.73;;;;;;;12.69;67.20;98822.38;5022482;28;20045;-40
2022/09/26 02:45:12;;;;;;;4.22;3.03;;;;;;;12.63;67.00;98821.72;5016818;28;21002;-40
2022/09/26 03:01:41;;;;;;;2.90;2.10;;;;;;;12.73;69.04;98766.81;5093566;27;20407;-42
2022/09/26 03:06:52;;;;;;;2.17;0.90;;;;;;;12.81;69.08;98743.19;5071251;27;20873;-43
2022/09/26 03:09:22;;;;;;;3.97;0.95;;;;;;;12.80;69.17;98741.47;5044674;28;20782;-41
2022/09/26 03:11:51;;;;;;;2.45;1.58;;;;;;;12.83;68.80;98746.56;5039724;28;20107;-42
2022/09/26 03:14:19;;;;;;;2.15;1.25;;;;;;;12.84;68.62;98755.22;5037823;28;20045;-44
2022/09/26 03:16:47;;;;;;;2.75;0.95;;;;;;;12.83;68.81;98749.16;5041084;28;20054;-43
2022/09/26 03:21:53;;;;;;;1.48;0.50;;;;;;;12.82;69.65;98755.28;5033938;28;20397;-41
2022/09/26 03:24:19;;;;;;;4.53;0.82;;;;;;;12.84;69.98;98743.06;5000663;28;20038;-41
2022/09/26 03:26:46;;;;;;;1.52;0.73;;;;;;;12.85;69.96;98724.00;4983374;28;20150;-42
2022/09/26 03:29:13;;;;;;;1.83;1.17;;;;;;;12.85;69.70;98712.75;4995422;28;20129;-41
2022/09/26 03:31:40;;;;;;;2.17;1.30;;;;;;;12.87;70.30;98710.09;4994716;28;20065;-41
2022/09/26 03:34:07;;;;;;;2.35;0.70;;;;;;;12.84;69.42;98709.28;4989856;28;20077;-43
2022/09/26 03:36:33;;;;;;;1.33;0.70;;;;;;;12.85;70.38;98700.63;4996907;28;20129;-42
2022/09/26 03:39:00;;;;;;;1.20;0.63;;;;;;;12.82;69.36;98690.31;4994593;28;20065;-41
2022/09/26 03:41:26;;;;;;;2.22;1.27;;;;;;;12.80;70.17;98688.69;4994585;28;20133;-42
2022/09/26 03:43:55;;;;;;;1.50;0.77;;;;;;;12.79;70.29;98677.44;4985492;28;20054;-43
2022/09/26 03:46:23;;;;;;;2.63;0.93;;;;;;;12.78;70.85;98669.69;4996703;28;20134;-42
2022/09/26 03:48:49;;;;;;;1.75;0.77;;;;;;;12.75;70.93;98664.59;4990926;28;20100;-42
2022/09/26 03:51:16;;;;;;;1.25;0.65;;;;;;;12.72;70.17;98665.53;4991290;28;20659;-41
2022/09/26 03:53:46;;;;;;;3.15;0.85;;;;;;;12.72;70.57;98670.75;5006797;28;20088;-42
2022/09/26 03:56:15;;;;;;;3.25;0.80;;;;;;;12.72;70.81;98670.75;5009784;28;20054;-43
2022/09/26 03:58:43;;;;;;;1.33;0.75;;;;;;;12.69;71.09;98663.03;5002434;28;20050;-43
2022/09/26 04:01:13;;;;;;;2.42;1.27;;;;;;;12.69;70.46;98655.25;5008739;28;20145;-41
2022/09/26 04:03:42;;;;;;;1.65;1.33;;;;;;;12.69;70.59;98652.66;5004737;28;20481;-41
2022/09/26 04:06:18;;;;;;;2.63;1.08;;;;;;;12.72;70.38;98655.16;5005345;28;20048;-43
2022/09/26 04:08:48;;;;;;;0.90;0.47;;;;;;;12.76;70.24;98651.53;5015699;28;20100;-42
2022/09/26 04:11:18;;;;;;;2.50;0.75;;;;;;;12.80;71.19;98660.09;5003547;28;20411;-42
2022/09/26 04:13:45;;;;;;;1.35;0.60;;;;;;;12.84;71.67;98659.91;4987876;28;20054;-41
2022/09/26 04:16:19;;;;;;;1.33;0.98;;;;;;;12.89;71.28;98669.31;5007264;28;20061;-41
2022/09/26 04:18:46;;;;;;;1.10;0.65;;;;;;;12.94;70.39;98680.41;4996822;28;20137;-41
2022/09/26 04:21:13;;;;;;;1.85;0.70;;;;;;;12.94;71.78;98691.63;5011007;28;20610;-43
2022/09/26 04:23:42;;;;;;;2.17;0.80;;;;;;;12.98;71.58;98702.78;5008286;28;20521;-41
2022/09/26 04:26:12;;;;;;;0.90;0.75;;;;;;;12.91;73.25;98667.50;5008906;28;20188;-40
2022/09/26 04:28:41;;;;;;;2.05;0.60;;;;;;;12.85;72.96;98682.44;5007450;28;20077;-41
2022/09/26 04:31:09;;;;;;;3.13;0.40;;;;;;;12.78;74.09;98670.53;5002845;28;20138;-40
2022/09/26 04:33:38;;;;;;;3.85;0.77;;;;;;;12.83;72.30;98666.03;4995171;28;20049;-39
2022/09/26 04:36:09;;;;;;;2.13;0.32;;;;;;;12.85;73.18;98651.25;4993299;28;20133;-41
2022/09/26 04:38:36;;;;;;;2.60;0.50;;;;;;;12.81;72.77;98639.25;4991958;28;20065;-39
2022/09/26 04:41:06;;;;;;;2.88;0.63;;;;;;;12.83;72.18;98636.59;4992816;28;20046;-39
2022/09/26 04:43:34;;;;;;;3.40;1.15;;;;;;;12.80;72.49;98621.94;4970486;28;20105;-40
2022/09/26 04:46:04;;;;;;;2.72;0.82;;;;;;;12.78;71.66;98623.78;4992889;28;20074;-41
2022/09/26 04:48:31;;;;;;;6.50;0.77;;;;;;;12.78;71.64;98626.38;4990147;28;20141;-40
2022/09/26 04:50:58;;;;;;;5.20;1.15;;;;;;;12.76;70.79;98624.75;5001320;28;20092;-40
2022/09/26 04:53:25;;;;;;;4.50;0.98;;;;;;;12.76;70.61;98614.34;4993944;28;20058;-40
2022/09/26 04:55:53;;;;;;;4.78;0.43;;;;;;;12.74;70.65;98632.59;5001248;28;20149;-41
2022/09/26 04:58:20;;;;;;;3.00;0.40;;;;;;;12.72;71.47;98624.84;5000009;28;20137;-40
2022/09/26 05:00:48;;;;;;;5.38;1.08;;;;;;;12.71;70.81;98622.28;5000917;28;20133;-40
2022/09/26 05:03:16;;;;;;;1.48;0.40;;;;;;;12.72;70.95;98624.84;4996008;28;20055;-43
2022/09/26 05:05:46;;;;;;;2.47;0.80;;;;;;;12.71;71.71;98617.09;4986358;28;20145;-40
2022/09/26 05:08:13;;;;;;;2.35;1.02;;;;;;;12.72;71.15;98609.25;4988781;28;20169;-40
2022/09/26 05:10:41;;;;;;;2.28;0.52;;;;;;;12.73;71.42;98604.88;4991616;28;20136;-39
2022/09/26 05:13:09;;;;;;;5.63;1.42;;;;;;;12.76;71.12;98609.97;4990442;28;20092;-40
2022/09/26 05:15:38;;;;;;;8.88;3.58;;;;;;;12.78;72.28;98608.19;4986453;28;20145;-40
2022/09/26 05:18:07;;;;;;;3.92;1.33;;;;;;;12.76;71.78;98606.56;4997483;28;20697;-40
2022/09/26 05:20:34;;;;;;;6.25;2.40;;;;;;;12.75;71.21;98608.28;4989975;28;20082;-41
2022/09/26 05:23:03;;;;;;;3.33;1.10;;;;;;;12.72;71.80;98605.78;4997247;28;20129;-39
2022/09/26 05:28:24;;;;;;;2.15;0.82;;;;;;;12.64;72.24;98615.59;5010243;28;20129;-39
2022/09/26 05:30:51;;;;;;;3.65;1.08;;;;;;;12.60;71.14;98605.31;4989476;28;20140;-40
2022/09/26 05:33:18;;;;;;;2.53;0.57;;;;;;;12.58;72.11;98607.13;4988166;28;20054;-40
2022/09/26 05:35:53;;;;;;;3.13;1.02;;;;;;;12.58;71.74;98601.94;4996771;28;20168;-39
2022/09/26 05:38:20;;;;;;;6.20;0.75;;;;;;;12.60;72.77;98607.09;4988347;28;20170;-39
2022/09/26 05:41:02;;;;;;;3.25;0.50;;;;;;;12.58;72.98;98614.91;4990419;28;20057;-40
2022/09/26 05:43:32;;;;;;;11.02;0.85;;;;;;;12.59;71.77;98611.41;4989273;28;20168;-39
2022/09/26 05:46:00;;;;;;;6.18;1.35;;;;;;;12.64;72.67;98613.88;4990766;28;20133;-39
2022/09/26 05:48:28;;;;;;;8.63;1.10;;;;;;;12.68;72.04;98612.00;4989842;28;20145;-40
2022/09/26 05:50:55;;;;;;;9.50;1.55;;;;;;;12.68;71.29;98597.28;4990717;28;20078;-43
2022/09/26 05:53:23;;;;;;;2.53;0.70;;;;;;;12.70;72.30;98607.59;4989353;28;20092;-40
2022/09/26 05:55:51;;;;;;;4.20;0.65;;;;;;;12.68;72.48;98597.28;4995156;28;20042;-41
2022/09/26 05:58:17;;;;;;;3.05;0.88;;;;;;;12.68;71.95;98597.28;4998890;28;20074;-43
2022/09/26 06:00:46;;;;;;;4.45;1.38;;;;;;;12.67;72.14;98600.75;4986325;28;20073;-42
2022/09/26 06:03:14;;;;;;;7.32;1.20;;;;;;;12.64;72.54;98602.63;4984789;28;20466;-40
2022/09/26 06:05:41;;;;;;;8.50;1.48;;;;;;;12.59;72.27;98605.38;4993975;28;20062;-39
2022/09/26 06:08:09;;;;;;;8.57;1.55;;;;;;;12.57;72.25;98610.59;4991754;28;20056;-41
2022/09/26 06:10:37;;;;;;;12.73;2.33;;;;;;;12.55;72.42;98617.63;4995420;28;20129;-42
2022/09/26 06:13:04;;;;;;;4.18;1.13;;;;;;;12.55;72.03;98616.75;4993414;28;20046;-39
2022/09/26 06:15:31;;;;;;;6.80;1.00;;;;;;;12.49;71.19;98617.81;5021399;28;20053;-39
2022/09/26 06:17:59;;;;;;;4.93;1.27;;;;;;;12.52;71.30;98628.09;4992985;28;20058;-40
2022/09/26 06:20:26;;;;;;;9.95;1.08;;;;;;;12.53;70.78;98621.16;4991330;28;20081;-39
2022/09/26 06:22:54;;;;;;;10.70;1.17;;;;;;;12.52;71.10;98628.09;4995275;28;20054;-40
2022/09/26 06:25:21;;;;;;;6.40;1.25;;;;;;;12.49;71.77;98623.00;4994810;28;20438;-42
2022/09/26 06:27:48;;;;;;;10.95;1.35;;;;;;;12.51;71.54;98623.81;4999536;28;20052;-40
2022/09/26 06:30:15;;;;;;;7.65;1.95;;;;;;;12.48;70.52;98621.31;4999056;28;20129;-40
2022/09/26 06:32:41;;;;;;;5.78;1.30;;;;;;;12.49;70.92;98622.19;5004877;28;20140;-43
2022/09/26 06:35:08;;;;;;;6.07;1.30;;;;;;;12.47;70.53;98620.47;4989692;28;20077;-40
2022/09/26 06:37:34;;;;;;;7.50;1.20;;;;;;;12.44;70.65;98627.53;4992740;28;20374;-41
2022/09/26 06:40:01;;;;;;;7.20;1.42;;;;;;;12.41;71.93;98627.59;4997445;28;20133;-41
2022/09/26 06:42:36;;;;;;;8.93;0.88;;;;;;;12.43;70.99;98628.44;4995704;28;20101;-40
2022/09/26 06:45:06;;;;;;;7.75;1.35;;;;;;;12.46;71.34;98628.28;4996653;28;20176;-41
2022/09/26 06:47:33;;;;;;;9.80;1.98;;;;;;;12.49;70.98;98624.78;4987133;28;20212;-40
2022/09/26 06:50:01;;;;;;;13.65;2.13;;;;;;;12.51;70.60;98626.41;4982063;28;20051;-41
2022/09/26 06:52:33;;;;;;;7.95;1.05;;;;;;;12.48;70.84;98610.94;4987418;28;20088;-40
2022/09/26 06:55:02;;;;;;;8.13;1.20;;;;;;;12.51;70.67;98621.22;4987079;28;20494;-40
2022/09/26 06:57:36;;;;;;;9.65;1.80;;;;;;;12.49;71.66;98616.97;4988242;28;20222;-41
2022/09/26 07:00:03;;;;;;;11.23;2.05;;;;;;;12.50;70.28;98619.50;4984873;28;20085;-41
2022/09/26 07:02:30;;;;;;;8.95;0.95;;;;;;;12.55;70.68;98617.63;4980135;28;20133;-42
2022/09/26 07:04:56;;;;;;;17.00;1.35;;;;;;;12.59;71.33;98615.75;4981764;28;20050;-41
2022/09/26 07:07:23;;;;;;;9.23;1.58;;;;;;;12.60;71.01;98615.69;4988886;28;20042;-40
2022/09/26 07:09:50;;;;;;;10.85;1.45;;;;;;;12.64;71.01;98616.47;4992313;28;20129;-40
2022/09/26 07:12:16;;;;;;;10.93;1.10;;;;;;;12.68;70.52;98618.06;4988211;28;20090;-40
2022/09/26 07:14:43;;;;;;;13.65;2.65;;;;;;;12.73;70.96;98620.47;4990591;28;20141;-41
2022/09/26 07:17:15;;;;;;;14.73;1.20;;;;;;;12.76;70.22;98625.56;4990629;28;20074;-42
2022/09/26 07:19:42;;;;;;;14.35;2.45;;;;;;;12.80;69.79;98627.16;4990697;28;20088;-40
2022/09/26 07:22:09;;;;;;;8.10;1.25;;;;;;;12.87;70.56;98616.56;4991202;28;20137;-43
2022/09/26 07:24:35;;;;;;;16.95;1.42;;;;;;;12.92;70.48;98619.84;4993596;28;20097;-42
2022/09/26 07:27:02;;;;;;;16.90;1.75;;;;;;;13.02;70.37;98628.16;4997139;28;20100;-40
2022/09/26 07:29:29;;;;;;;10.90;1.60;;;;;;;13.08;69.63;98620.97;4989371;28;20043;-43
2022/09/26 07:31:57;;;;;;;13.98;2.25;;;;;;;13.07;68.88;98634.88;4993371;28;20092;-40
2022/09/26 07:34:24;;;;;;;12.05;2.28;;;;;;;13.09;68.53;98638.28;4985213;28;20050;-42
2022/09/26 07:36:51;;;;;;;12.68;1.90;;;;;;;13.10;68.90;98629.56;4995537;28;20077;-41
2022/09/26 07:39:18;;;;;;;14.80;1.80;;;;;;;13.20;69.52;98618.84;4983776;28;20150;-42
2022/09/26 07:41:45;;;;;;;12.73;2.05;;;;;;;13.30;69.01;98621.94;4991094;28;20116;-41
2022/09/26 07:44:13;;;;;;;13.65;1.98;;;;;;;13.34;68.24;98608.78;4989239;28;20149;-41
2022/09/26 07:52:32;;;;;;;13.43;2.85;;;;;;;13.27;67.64;98641.09;4992961;28;20141;-41
2022/09/26 07:54:59;;;;;;;12.95;2.80;;;;;;;13.19;67.78;98643.13;4994660;28;20461;-42
2022/09/26 07:57:25;;;;;;;10.02;1.98;;;;;;;13.19;67.44;98649.19;4995331;28;20137;-42
2022/09/26 07:59:53;;;;;;;22.73;3.15;;;;;;;13.27;68.58;98651.50;4994575;28;20607;-41
2022/09/26 08:02:25;;;;;;;13.52;2.30;;;;;;;13.42;68.92;98646.66;4982646;28;20050;-41
2022/09/26 08:04:53;;;;;;;12.35;2.00;;;;;;;13.62;68.17;98651.16;4986173;28;20395;-41
2022/09/26 08:07:26;;;;;;;13.55;3.00;;;;;;;13.75;67.63;98648.94;5015289;28;20054;-42
2022/09/26 08:09:53;;;;;;;14.48;3.03;;;;;;;13.82;66.76;98624.34;4993261;28;20050;-42
2022/09/26 08:12:19;;;;;;;16.27;3.00;;;;;;;13.86;66.17;98638.09;4988551;28;20055;-41
2022/09/26 08:14:48;;;;;;;12.98;1.95;;;;;;;13.89;66.19;98632.78;4997832;28;20145;-41
2022/09/26 08:17:15;;;;;;;18.73;2.53;;;;;;;13.87;66.36;98632.84;5002211;28;20050;-41
2022/09/26 08:19:42;;;;;;;16.70;2.25;;;;;;;13.94;66.74;98640.38;4994668;28;20584;-43
2022/09/26 08:22:10;;;;;;;12.07;1.63;;;;;;;14.03;65.24;98642.66;4994944;28;20615;-42
2022/09/26 08:24:37;;;;;;;17.45;2.25;;;;;;;14.35;66.17;98645.69;4996599;28;20051;-42
2022/09/26 08:27:05;;;;;;;13.73;2.25;;;;;;;14.78;64.99;98647.44;4998191;28;20049;-42
2022/09/26 08:29:31;;;;;;;13.75;2.25;;;;;;;14.90;64.27;98651.31;4992978;28;20085;-41
2022/09/26 08:32:01;;;;;;;8.02;1.20;;;;;;;14.92;64.07;98649.47;4995004;28;20715;-43
2022/09/26 08:34:30;;;;;;;13.82;1.48;;;;;;;14.92;63.82;98656.47;4992505;28;20720;-42
2022/09/26 08:36:57;;;;;;;11.52;1.77;;;;;;;14.86;63.91;98663.59;4993259;28;20057;-42
2022/09/26 08:39:24;;;;;;;13.98;1.95;;;;;;;14.76;63.80;98660.50;4993603;28;20049;-42
2022/09/26 08:55:33;;;;;;;18.48;2.55;;;;;;;14.36;65.02;98659.56;5033128;28;20409;-42
2022/09/26 08:58:09;;;;;;;18.90;2.92;;;;;;;14.35;65.05;98671.75;4989134;28;20054;-42
2022/09/26 09:00:37;;;;;;;10.60;1.83;;;;;;;14.32;65.23;98664.03;4991203;28;20145;-40
2022/09/26 09:05:47;;;;;;;20.08;2.20;;;;;;;14.93;65.02;98686.81;4999846;28;21117;-42
2022/09/26 09:08:21;;;;;;;13.65;3.03;;;;;;;15.25;64.58;98688.03;5004533;28;20121;-42
2022/09/26 09:11:27;;;;;;;16.50;2.08;;;;;;;15.46;63.23;98689.72;4998581;28;20050;-42
2022/09/26 09:30:59;;;;;;;11.25;3.13;;;;;;;16.44;60.08;98686.09;5037210;28;20407;-41
2022/09/26 09:33:33;;;;;;;12.82;2.50;;;;;;;16.59;60.03;98691.50;4991391;28;20185;-43
2022/09/26 09:36:05;;;;;;;9.00;2.45;;;;;;;16.77;59.60;98701.94;4999356;28;20509;-42
2022/09/26 09:38:35;;;;;;;8.23;3.42;;;;;;;16.91;58.02;98686.41;4995358;28;20145;-42
2022/09/26 09:41:09;;;;;;;10.73;2.30;;;;;;;17.14;58.65;98689.66;5008713;28;20137;-42
2022/09/26 09:43:59;;;;;;;7.78;2.65;;;;;;;17.57;57.71;98683.91;4986889;28;20160;-42
2022/09/26 09:46:28;;;;;;;7.57;1.90;;;;;;;17.77;57.12;98684.63;4997822;28;20085;-42
2022/09/26 09:49:12;;;;;;;10.68;2.00;;;;;;;17.75;56.30;98690.84;5031890;28;20116;-41
2022/09/26 10:08:18;;;;;;;2.97;0.57;;;;;;;15.88;59.04;98709.56;5041957;27;20396;-43
2022/09/26 10:10:54;;;;;;;2.38;0.60;;;;;;;15.81;59.23;98695.13;5038245;28;20061;-43
2022/09/26 10:13:24;;;;;;;3.55;0.80;;;;;;;15.99;59.10;98690.84;5046454;28;20040;-42
2022/09/26 10:15:59;;;;;;;1.88;0.70;;;;;;;16.12;58.64;98685.91;5058033;28;20044;-43
2022/09/26 10:18:26;;;;;;;3.10;0.85;;;;;;;16.27;58.72;98693.91;5046925;28;20053;-44
2022/09/26 10:20:57;;;;;;;4.75;0.80;;;;;;;16.31;58.25;98692.81;5047300;28;20154;-43
2022/09/26 10:26:03;;;;;;;5.47;1.27;;;;;;;16.68;57.40;98696.25;5025081;27;20402;-45
2022/09/26 10:28:34;;;;;;;2.83;0.93;;;;;;;16.81;57.16;98691.25;5019741;28;20142;-42
2022/09/26 10:31:06;;;;;;;8.02;0.98;;;;;;;16.77;57.08;98691.47;5014022;28;20068;-43
2022/09/26 10:33:36;;;;;;;1.33;0.75;;;;;;;16.67;56.34;98688.47;5012334;28;20045;-42
2022/09/26 10:36:27;;;;;;;2.88;0.32;;;;;;;16.68;56.41;98684.94;5015877;28;20050;-46
2022/09/26 10:41:46;;;;;;;3.17;0.75;;;;;;;16.90;56.03;98678.63;5013560;28;20124;-43
2022/09/26 10:47:07;;;;;;;7.05;1.55;;;;;;;17.32;55.44;98684.34;5033199;27;20932;-43
2022/09/26 10:49:46;;;;;;;4.57;2.45;;;;;;;17.40;53.42;98676.97;4998048;28;20050;-41
2022/09/26 10:52:22;;;;;;;6.00;1.98;;;;;;;17.42;53.62;98690.81;4996597;28;20498;-42
2022/09/26 10:55:03;;;;;;;5.25;1.38;;;;;;;17.42;54.47;98685.56;4992610;28;20486;-42
2022/09/26 10:57:44;;;;;;;3.17;1.45;;;;;;;17.43;53.07;98692.50;5008081;28;20059;-43
2022/09/26 11:00:37;;;;;;;4.18;1.70;;;;;;;17.28;52.49;98693.31;4989034;28;20083;-44
2022/09/26 11:03:05;;;;;;;8.48;2.28;;;;;;;17.27;53.89;98692.47;4993461;28;20077;-43
2022/09/26 11:08:24;;;;;;;;;;;;;;;17.09;52.71;98694.25;4993995;28;20042;-45
2022/09/26 11:10:52;;;;;;;3.97;2.22;;;;;;;17.11;52.79;98684.56;4996633;28;20377;-41
2022/09/26 11:13:21;;;;;;;9.95;1.73;;;;;;;17.11;53.13;98692.41;4993395;28;20073;-42
2022/09/26 11:21:35;;;;;;;5.38;1.48;;;;;;;16.98;52.08;98691.34;5088159;27;20744;-43
2022/09/26 11:30:19;;;;;;;10.93;1.88;;;;;;;16.44;52.09;98713.97;5048123;27;20403;-42
2022/09/26 11:32:48;;;;;;;2.42;1.70;;;;;;;16.26;51.69;98718.34;5003138;28;20736;-43
2022/09/26 11:35:29;;;;;;;7.65;1.55;;;;;;;16.09;51.56;98709.53;5013009;28;20115;-45
2022/09/26 11:43:46;;;;;;;6.60;1.20;;;;;;;15.64;52.67;98746.31;5033512;27;20410;-43
2022/09/26 11:49:37;;;;;;;2.97;0.73;;;;;;;15.24;53.06;98758.50;5041961;27;20421;-44
2022/09/26 11:58:04;;;;;;;4.82;1.45;;;;;;;14.87;56.40;98753.94;5057364;27;20396;-41
2022/09/26 12:00:46;;;;;;;7.28;1.95;;;;;;;14.90;56.03;98756.41;5007597;28;20141;-43
2022/09/26 12:06:18;;;;;;;8.90;1.80;;;;;;;15.26;55.96;98757.53;5035492;28;20432;-43
2022/09/26 12:17:13;;;;;;;5.63;2.70;;;;;;;15.27;53.65;98764.44;5044780;28;20406;-44
2022/09/26 12:19:54;;;;;;;7.20;2.20;;;;;;;15.09;53.12;98771.28;5034192;28;20061;-43
2022/09/26 12:34:20;;;;;;;2.25;0.52;;;;;;;14.87;52.68;98782.63;5028226;28;20427;-43
2022/09/26 12:43:08;;;;;;;4.63;1.35;;;;;;;15.20;51.14;98785.66;5039826;28;20415;-45
2022/09/26 12:46:07;;;;;;;3.53;1.83;;;;;;;15.30;50.43;98779.09;5004006;28;20050;-43
2022/09/26 13:18:29;;;;;;;1.85;1.40;;;;;;;16.44;46.27;98768.84;5067771;28;22696;-42
2022/09/26 13:21:06;;;;;;;2.50;1.58;;;;;;;16.41;46.36;98772.47;5020402;28;20060;-42
2022/09/26 13:26:31;;;;;;;1.08;0.50;;;;;;;16.31;46.18;98776.44;5059560;27;20400;-44
2022/09/26 13:29:06;;;;;;;2.40;0.52;;;;;;;16.30;46.18;98775.59;5032947;28;20045;-43
2022/09/26 13:31:54;;;;;;;0.85;0.32;;;;;;;16.25;46.38;98784.56;5055499;28;20056;-42
2022/09/26 13:34:36;;;;;;;2.58;0.52;;;;;;;16.21;46.56;98783.03;5053510;28;20090;-46
2022/09/26 13:37:08;;;;;;;1.60;0.40;;;;;;;16.16;45.90;98778.00;5052219;28;20136;-43
2022/09/26 13:42:32;;;;;;;1.17;0.32;;;;;;;16.13;46.56;98784.22;5032636;28;20405;-44
2022/09/26 13:48:00;;;;;;;2.03;0.65;;;;;;;16.07;47.03;98787.09;4993100;28;20411;-42
2022/09/26 13:56:33;;;;;;;1.98;1.45;;;;;;;15.80;47.19;98788.25;5076381;27;20406;-47
2022/09/26 14:02:15;;;;;;;1.63;0.40;;;;;;;15.65;47.89;98789.78;5036506;28;20909;-43
2022/09/26 14:04:44;;;;;;;2.40;0.52;;;;;;;15.66;48.25;98796.69;5019795;28;20049;-43
2022/09/26 14:10:01;;;;;;;1.02;0.38;;;;;;;15.64;48.17;98801.13;5053362;28;20956;-46
2022/09/26 14:12:50;;;;;;;1.30;0.55;;;;;;;15.67;48.60;98813.19;5016549;28;20536;-44
2022/09/26 14:15:24;;;;;;;1.95;0.30;;;;;;;15.67;48.28;98821.03;5018088;28;20046;-43
2022/09/26 14:20:34;;;;;;;1.45;1.35;;;;;;;15.62;48.73;98825.59;5022417;28;20402;-45
2022/09/26 14:23:02;;;;;;;2.42;1.40;;;;;;;15.58;48.92;98824.91;5012836;28;20045;-48
2022/09/26 14:33:48;;;;;;;1.70;0.50;;;;;;;15.58;49.57;98818.81;5054579;27;20387;-45
2022/09/26 14:36:34;;;;;;;1.30;0.55;;;;;;;15.47;49.65;98814.91;4993193;28;20052;-44
2022/09/26 14:39:02;;;;;;;1.60;0.52;;;;;;;15.47;49.25;98811.47;5007705;28;20092;-42
2022/09/26 14:41:33;;;;;;;2.80;0.30;;;;;;;15.48;49.18;98823.59;4985645;28;20447;-45
2022/09/26 14:44:04;;;;;;;3.28;0.57;;;;;;;15.48;49.49;98813.16;4993613;28;20087;-43
2022/09/26 14:46:34;;;;;;;1.40;0.65;;;;;;;15.53;49.85;98811.19;5028659;28;20060;-44
2022/09/26 14:49:04;;;;;;;;;;;;;;;15.40;49.27;98811.72;4998946;28;20066;-48
2022/09/26 14:51:36;;;;;;;1.60;0.30;;;;;;;15.55;49.65;98815.44;5005576;28;19921;-46
2022/09/26 14:56:45;;;;;;;1.75;1.48;;;;;;;15.59;49.57;98823.97;5056722;27;21019;-47
2022/09/26 15:02:08;;;;;;;1.75;1.25;;;;;;;15.55;49.14;98814.59;5027681;27;20418;-42
2022/09/26 15:04:35;;;;;;;3.40;1.50;;;;;;;15.50;49.12;98819.16;4999090;28;20125;-46
2022/09/26 15:07:10;;;;;;;4.43;1.70;;;;;;;15.40;49.12;98816.94;5000790;28;20042;-46
2022/09/26 15:15:06;;;;;;;1.85;1.08;;;;;;;15.27;49.85;98821.00;5068482;27;20386;-44
2022/09/26 15:17:37;;;;;;;;;;;;;;;15.07;50.58;98824.41;5026231;28;20049;-43
2022/09/26 15:20:07;;;;;;;4.43;0.50;;;;;;;15.15;49.92;98823.19;5026933;28;19921;-46
2022/09/26 15:22:33;;;;;;;4.15;0.70;;;;;;;15.12;50.28;98814.63;5027813;28;20145;-45
2022/09/26 15:25:08;;;;;;;2.88;0.30;;;;;;;15.08;50.42;98813.94;5032519;28;20132;-45
2022/09/26 15:27:35;;;;;;;3.38;0.47;;;;;;;15.07;50.73;98819.19;5032318;28;20100;-43
2022/09/26 15:30:14;;;;;;;1.88;0.50;;;;;;;15.01;50.26;98821.16;5023930;28;20059;-46
2022/09/26 15:32:41;;;;;;;2.28;0.80;;;;;;;15.03;51.03;98818.50;5029538;28;20045;-44
2022/09/26 15:35:11;;;;;;;3.35;0.85;;;;;;;15.09;50.79;98814.75;5030091;28;20057;-45
2022/09/26 15:37:38;;;;;;;3.17;0.57;;;;;;;15.14;50.80;98805.00;5030150;28;20052;-43
2022/09/26 15:40:24;;;;;;;2.50;0.40;;;;;;;15.15;50.87;98804.94;5033318;28;20169;-45
2022/09/26 15:43:12;;;;;;;4.05;0.60;;;;;;;15.14;51.00;98805.84;5034823;28;20496;-45
2022/09/26 15:51:22;;;;;;;7.63;2.65;;;;;;;15.21;51.36;98805.59;5041722;27;20415;-43
2022/09/26 15:54:00;;;;;;;5.22;1.95;;;;;;;15.24;51.19;98808.94;5025466;28;20132;-43